sensor_id;sensor_type;location;lat;lon;timestamp;P1;durP1;ratioP1;P2;durP2;ratioP2
44078;SDS011;29744;49.078;12.878;2022-12-13T00:02:47;5.07;;;3.90;;
44078;SDS011;29744;49.078;12.878;2022-12-13T00:07:47;5.13;;;4.07;;
44078;SDS011;29744;49.078;12.878;2022-12-13T00:12:47;5.90;;;4.38;;
44078;SDS011;29744;49.078;12.878;2022-12-13T00:17:48;6.57;;;4.35;;
44078;SDS011;29744;49.078;12.878;2022-12-13T00:22:50;5.90;;;3.72;;
44078;SDS011;29744;49.078;12.878;2022-12-13T00:27:50;5.85;;;4.13;;
44078;SDS011;29744;49.078;12.878;2022-12-13T00:32:51;4.67;;;3.40;;
44078;SDS011;29744;49.078;12.878;2022-12-13T00:37:51;5.53;;;3.90;;
44078;SDS011;29744;49.078;12.878;2022-12-13T00:42:51;5.40;;;3.50;;
44078;SDS011;29744;49.078;12.878;2022-12-13T00:47:51;5.18;;;3.38;;
44078;SDS011;29744;49.078;12.878;2022-12-13T00:52:52;4.75;;;3.42;;
44078;SDS011;29744;49.078;12.878;2022-12-13T00:57:52;5.55;;;3.63;;
44078;SDS011;29744;49.078;12.878;2022-12-13T01:02:53;6.05;;;3.80;;
44078;SDS011;29744;49.078;12.878;2022-12-13T01:07:53;5.10;;;3.45;;
44078;SDS011;29744;49.078;12.878;2022-12-13T01:12:54;5.28;;;3.40;;
44078;SDS011;29744;49.078;12.878;2022-12-13T01:17:54;5.10;;;3.42;;
44078;SDS011;29744;49.078;12.878;2022-12-13T01:22:54;4.63;;;2.97;;
44078;SDS011;29744;49.078;12.878;2022-12-13T01:27:54;5.07;;;3.38;;
44078;SDS011;29744;49.078;12.878;2022-12-13T01:32:55;5.32;;;3.50;;
44078;SDS011;29744;49.078;12.878;2022-12-13T01:37:55;4.78;;;3.45;;
44078;SDS011;29744;49.078;12.878;2022-12-13T01:42:55;5.28;;;3.20;;
44078;SDS011;29744;49.078;12.878;2022-12-13T01:47:57;4.53;;;2.88;;
44078;SDS011;29744;49.078;12.878;2022-12-13T01:53:03;4.13;;;2.78;;
44078;SDS011;29744;49.078;12.878;2022-12-13T01:58:07;4.60;;;3.15;;
44078;SDS011;29744;49.078;12.878;2022-12-13T02:03:07;4.68;;;2.95;;
44078;SDS011;29744;49.078;12.878;2022-12-13T02:08:09;5.07;;;3.00;;
44078;SDS011;29744;49.078;12.878;2022-12-13T02:13:11;4.63;;;3.28;;
44078;SDS011;29744;49.078;12.878;2022-12-13T02:18:38;4.20;;;2.40;;
44078;SDS011;29744;49.078;12.878;2022-12-13T02:24:00;4.45;;;3.00;;
44078;SDS011;29744;49.078;12.878;2022-12-13T02:29:20;4.50;;;2.85;;
44078;SDS011;29744;49.078;12.878;2022-12-13T02:34:23;4.30;;;2.90;;
44078;SDS011;29744;49.078;12.878;2022-12-13T02:39:29;4.35;;;2.90;;
44078;SDS011;29744;49.078;12.878;2022-12-13T02:44:36;4.97;;;2.80;;
44078;SDS011;29744;49.078;12.878;2022-12-13T02:49:56;4.00;;;2.50;;
44078;SDS011;29744;49.078;12.878;2022-12-13T02:55:05;4.32;;;2.90;;
44078;SDS011;29744;49.078;12.878;2022-12-13T03:05:27;3.80;;;2.65;;
44078;SDS011;29744;49.078;12.878;2022-12-13T03:11:07;4.20;;;2.65;;
44078;SDS011;29744;49.078;12.878;2022-12-13T03:16:22;4.25;;;2.47;;
44078;SDS011;29744;49.078;12.878;2022-12-13T03:21:24;4.00;;;2.60;;
44078;SDS011;29744;49.078;12.878;2022-12-13T03:26:25;3.50;;;2.45;;
44078;SDS011;29744;49.078;12.878;2022-12-13T03:31:26;4.05;;;2.60;;
44078;SDS011;29744;49.078;12.878;2022-12-13T03:36:26;3.40;;;2.30;;
44078;SDS011;29744;49.078;12.878;2022-12-13T03:41:27;4.35;;;2.38;;
44078;SDS011;29744;49.078;12.878;2022-12-13T03:46:31;3.85;;;2.50;;
44078;SDS011;29744;49.078;12.878;2022-12-13T03:51:32;3.90;;;2.50;;
44078;SDS011;29744;49.078;12.878;2022-12-13T03:56:33;3.38;;;2.25;;
44078;SDS011;29744;49.078;12.878;2022-12-13T04:01:33;3.60;;;2.13;;
44078;SDS011;29744;49.078;12.878;2022-12-13T04:06:34;4.13;;;2.40;;
44078;SDS011;29744;49.078;12.878;2022-12-13T04:11:34;3.45;;;2.38;;
44078;SDS011;29744;49.078;12.878;2022-12-13T04:16:53;3.28;;;2.08;;
44078;SDS011;29744;49.078;12.878;2022-12-13T04:21:53;4.22;;;2.20;;
44078;SDS011;29744;49.078;12.878;2022-12-13T04:26:53;3.45;;;2.13;;
44078;SDS011;29744;49.078;12.878;2022-12-13T04:31:54;2.95;;;1.95;;
44078;SDS011;29744;49.078;12.878;2022-12-13T04:36:54;3.45;;;2.03;;
44078;SDS011;29744;49.078;12.878;2022-12-13T04:41:54;3.00;;;1.85;;
44078;SDS011;29744;49.078;12.878;2022-12-13T04:46:55;3.45;;;1.92;;
44078;SDS011;29744;49.078;12.878;2022-12-13T04:51:56;3.25;;;2.10;;
44078;SDS011;29744;49.078;12.878;2022-12-13T04:56:56;3.45;;;2.17;;
44078;SDS011;29744;49.078;12.878;2022-12-13T05:01:57;3.08;;;1.98;;
44078;SDS011;29744;49.078;12.878;2022-12-13T05:06:57;3.03;;;2.00;;
44078;SDS011;29744;49.078;12.878;2022-12-13T05:11:57;3.22;;;2.03;;
44078;SDS011;29744;49.078;12.878;2022-12-13T05:16:58;3.20;;;1.80;;
44078;SDS011;29744;49.078;12.878;2022-12-13T05:22:00;3.65;;;1.90;;
44078;SDS011;29744;49.078;12.878;2022-12-13T05:27:00;3.20;;;1.92;;
44078;SDS011;29744;49.078;12.878;2022-12-13T05:32:00;3.30;;;2.00;;
44078;SDS011;29744;49.078;12.878;2022-12-13T05:37:01;2.67;;;1.70;;
44078;SDS011;29744;49.078;12.878;2022-12-13T05:42:02;2.80;;;1.80;;
44078;SDS011;29744;49.078;12.878;2022-12-13T05:47:02;3.78;;;2.10;;
44078;SDS011;29744;49.078;12.878;2022-12-13T05:52:03;2.45;;;1.58;;
44078;SDS011;29744;49.078;12.878;2022-12-13T05:57:03;3.03;;;1.73;;
44078;SDS011;29744;49.078;12.878;2022-12-13T06:02:03;3.10;;;1.92;;
44078;SDS011;29744;49.078;12.878;2022-12-13T06:07:04;3.13;;;1.75;;
44078;SDS011;29744;49.078;12.878;2022-12-13T06:12:04;2.97;;;1.70;;
44078;SDS011;29744;49.078;12.878;2022-12-13T06:17:05;2.72;;;1.63;;
44078;SDS011;29744;49.078;12.878;2022-12-13T06:22:06;2.55;;;1.58;;
44078;SDS011;29744;49.078;12.878;2022-12-13T06:27:06;2.88;;;1.42;;
44078;SDS011;29744;49.078;12.878;2022-12-13T06:32:06;2.47;;;1.45;;
44078;SDS011;29744;49.078;12.878;2022-12-13T06:37:09;2.83;;;1.58;;
44078;SDS011;29744;49.078;12.878;2022-12-13T06:42:15;3.13;;;1.80;;
44078;SDS011;29744;49.078;12.878;2022-12-13T06:47:17;2.87;;;1.70;;
44078;SDS011;29744;49.078;12.878;2022-12-13T06:52:17;2.50;;;1.50;;
44078;SDS011;29744;49.078;12.878;2022-12-13T06:57:18;3.35;;;1.70;;
44078;SDS011;29744;49.078;12.878;2022-12-13T07:02:18;3.30;;;1.90;;
44078;SDS011;29744;49.078;12.878;2022-12-13T07:07:18;10.77;;;7.72;;
44078;SDS011;29744;49.078;12.878;2022-12-13T07:12:19;18.95;;;12.68;;
44078;SDS011;29744;49.078;12.878;2022-12-13T07:17:19;21.30;;;14.40;;
44078;SDS011;29744;49.078;12.878;2022-12-13T07:22:20;19.83;;;14.18;;
44078;SDS011;29744;49.078;12.878;2022-12-13T07:27:20;17.15;;;12.27;;
44078;SDS011;29744;49.078;12.878;2022-12-13T07:32:20;17.90;;;11.98;;
44078;SDS011;29744;49.078;12.878;2022-12-13T07:37:21;16.40;;;11.40;;
44078;SDS011;29744;49.078;12.878;2022-12-13T07:42:21;17.02;;;11.18;;
44078;SDS011;29744;49.078;12.878;2022-12-13T07:47:21;15.48;;;10.10;;
44078;SDS011;29744;49.078;12.878;2022-12-13T07:52:22;14.13;;;10.27;;
44078;SDS011;29744;49.078;12.878;2022-12-13T07:57:22;13.27;;;9.50;;
44078;SDS011;29744;49.078;12.878;2022-12-13T08:02:23;13.23;;;9.93;;
44078;SDS011;29744;49.078;12.878;2022-12-13T08:07:23;14.85;;;9.70;;
44078;SDS011;29744;49.078;12.878;2022-12-13T08:12:23;12.24;;;8.64;;
44078;SDS011;29744;49.078;12.878;2022-12-13T08:17:24;11.68;;;8.45;;
44078;SDS011;29744;49.078;12.878;2022-12-13T08:22:24;11.55;;;8.23;;
44078;SDS011;29744;49.078;12.878;2022-12-13T08:27:24;11.13;;;8.10;;
44078;SDS011;29744;49.078;12.878;2022-12-13T08:32:26;11.05;;;7.72;;
44078;SDS011;29744;49.078;12.878;2022-12-13T08:37:26;10.70;;;8.02;;
44078;SDS011;29744;49.078;12.878;2022-12-13T08:42:27;11.80;;;8.00;;
44078;SDS011;29744;49.078;12.878;2022-12-13T08:47:27;10.30;;;7.57;;
44078;SDS011;29744;49.078;12.878;2022-12-13T08:52:27;10.68;;;7.34;;
44078;SDS011;29744;49.078;12.878;2022-12-13T08:57:27;10.70;;;7.47;;
44078;SDS011;29744;49.078;12.878;2022-12-13T09:02:28;10.20;;;7.30;;
44078;SDS011;29744;49.078;12.878;2022-12-13T09:07:28;9.80;;;6.45;;
44078;SDS011;29744;49.078;12.878;2022-12-13T09:12:28;9.52;;;6.92;;
44078;SDS011;29744;49.078;12.878;2022-12-13T09:17:29;10.10;;;6.68;;
44078;SDS011;29744;49.078;12.878;2022-12-13T09:22:31;9.55;;;7.07;;
44078;SDS011;29744;49.078;12.878;2022-12-13T09:27:31;10.80;;;6.32;;
44078;SDS011;29744;49.078;12.878;2022-12-13T09:32:32;8.70;;;6.32;;
44078;SDS011;29744;49.078;12.878;2022-12-13T09:37:33;8.60;;;6.38;;
44078;SDS011;29744;49.078;12.878;2022-12-13T09:42:33;8.80;;;6.10;;
44078;SDS011;29744;49.078;12.878;2022-12-13T09:52:42;7.88;;;5.82;;
44078;SDS011;29744;49.078;12.878;2022-12-13T09:57:43;8.57;;;6.10;;
44078;SDS011;29744;49.078;12.878;2022-12-13T10:02:50;9.00;;;6.03;;
44078;SDS011;29744;49.078;12.878;2022-12-13T10:07:53;8.93;;;5.93;;
44078;SDS011;29744;49.078;12.878;2022-12-13T10:12:58;8.32;;;5.95;;
44078;SDS011;29744;49.078;12.878;2022-12-13T10:18:30;8.00;;;5.70;;
44078;SDS011;29744;49.078;12.878;2022-12-13T10:23:33;8.57;;;5.63;;
44078;SDS011;29744;49.078;12.878;2022-12-13T10:28:33;8.52;;;5.55;;
44078;SDS011;29744;49.078;12.878;2022-12-13T10:33:36;8.70;;;5.68;;
44078;SDS011;29744;49.078;12.878;2022-12-13T10:38:40;6.95;;;5.15;;
44078;SDS011;29744;49.078;12.878;2022-12-13T10:43:43;7.30;;;4.88;;
44078;SDS011;29744;49.078;12.878;2022-12-13T10:48:47;7.32;;;5.07;;
44078;SDS011;29744;49.078;12.878;2022-12-13T10:53:51;7.47;;;5.47;;
44078;SDS011;29744;49.078;12.878;2022-12-13T11:09:34;7.32;;;4.75;;
44078;SDS011;29744;49.078;12.878;2022-12-13T11:14:35;7.63;;;5.00;;
44078;SDS011;29744;49.078;12.878;2022-12-13T11:19:46;6.20;;;4.40;;
44078;SDS011;29744;49.078;12.878;2022-12-13T11:24:51;5.90;;;4.45;;
44078;SDS011;29744;49.078;12.878;2022-12-13T11:35:15;7.60;;;4.65;;
44078;SDS011;29744;49.078;12.878;2022-12-13T11:40:24;7.28;;;4.57;;
44078;SDS011;29744;49.078;12.878;2022-12-13T11:45:29;6.90;;;4.40;;
44078;SDS011;29744;49.078;12.878;2022-12-13T11:50:36;6.35;;;4.38;;
44078;SDS011;29744;49.078;12.878;2022-12-13T11:55:41;6.47;;;4.57;;
44078;SDS011;29744;49.078;12.878;2022-12-13T12:00:58;5.80;;;4.10;;
44078;SDS011;29744;49.078;12.878;2022-12-13T12:06:06;5.90;;;4.20;;
44078;SDS011;29744;49.078;12.878;2022-12-13T12:11:15;6.18;;;4.05;;
44078;SDS011;29744;49.078;12.878;2022-12-13T12:37:24;5.50;;;3.83;;
44078;SDS011;29744;49.078;12.878;2022-12-13T12:42:33;6.60;;;4.03;;
44078;SDS011;29744;49.078;12.878;2022-12-13T12:47:48;6.10;;;3.50;;
44078;SDS011;29744;49.078;12.878;2022-12-13T12:53:20;4.93;;;3.22;;
44078;SDS011;29744;49.078;12.878;2022-12-13T13:03:41;5.13;;;3.42;;
44078;SDS011;29744;49.078;12.878;2022-12-13T13:08:44;4.63;;;3.13;;
44078;SDS011;29744;49.078;12.878;2022-12-13T13:13:46;5.30;;;3.65;;
44078;SDS011;29744;49.078;12.878;2022-12-13T13:18:49;4.43;;;2.97;;
44078;SDS011;29744;49.078;12.878;2022-12-13T13:34:31;4.65;;;3.13;;
44078;SDS011;29744;49.078;12.878;2022-12-13T13:44:59;5.10;;;3.25;;
44078;SDS011;29744;49.078;12.878;2022-12-13T13:50:19;4.65;;;3.00;;
44078;SDS011;29744;49.078;12.878;2022-12-13T14:06:02;4.18;;;2.80;;
44078;SDS011;29744;49.078;12.878;2022-12-13T14:12:06;4.70;;;3.05;;
44078;SDS011;29744;49.078;12.878;2022-12-13T14:33:02;4.43;;;2.70;;
44078;SDS011;29744;49.078;12.878;2022-12-13T14:38:05;4.13;;;2.85;;
44078;SDS011;29744;49.078;12.878;2022-12-13T14:48:25;4.00;;;2.47;;
44078;SDS011;29744;49.078;12.878;2022-12-13T14:53:29;3.88;;;2.85;;
44078;SDS011;29744;49.078;12.878;2022-12-13T14:58:36;4.68;;;3.00;;
44078;SDS011;29744;49.078;12.878;2022-12-13T15:03:37;4.60;;;3.13;;
44078;SDS011;29744;49.078;12.878;2022-12-13T15:08:37;4.43;;;2.80;;
44078;SDS011;29744;49.078;12.878;2022-12-13T15:13:46;5.15;;;2.95;;
44078;SDS011;29744;49.078;12.878;2022-12-13T15:24:22;4.60;;;2.78;;
44078;SDS011;29744;49.078;12.878;2022-12-13T15:29:27;3.92;;;2.53;;
44078;SDS011;29744;49.078;12.878;2022-12-13T15:34:34;3.97;;;2.42;;
44078;SDS011;29744;49.078;12.878;2022-12-13T15:39:36;4.72;;;2.78;;
44078;SDS011;29744;49.078;12.878;2022-12-13T15:44:52;3.90;;;2.58;;
44078;SDS011;29744;49.078;12.878;2022-12-13T16:05:29;3.67;;;2.58;;
44078;SDS011;29744;49.078;12.878;2022-12-13T16:10:33;7.25;;;2.58;;
44078;SDS011;29744;49.078;12.878;2022-12-13T16:15:47;5.25;;;2.50;;
44078;SDS011;29744;49.078;12.878;2022-12-13T16:20:48;4.25;;;2.72;;
44078;SDS011;29744;49.078;12.878;2022-12-13T16:25:51;3.92;;;2.50;;
44078;SDS011;29744;49.078;12.878;2022-12-13T16:35:52;3.83;;;2.40;;
44078;SDS011;29744;49.078;12.878;2022-12-13T16:40:54;5.00;;;2.25;;
44078;SDS011;29744;49.078;12.878;2022-12-13T16:45:58;3.75;;;2.47;;
44078;SDS011;29744;49.078;12.878;2022-12-13T16:51:01;3.92;;;2.17;;
44078;SDS011;29744;49.078;12.878;2022-12-13T16:56:04;4.80;;;2.50;;
44078;SDS011;29744;49.078;12.878;2022-12-13T17:01:09;3.75;;;2.25;;
44078;SDS011;29744;49.078;12.878;2022-12-13T17:06:10;4.22;;;2.40;;
44078;SDS011;29744;49.078;12.878;2022-12-13T17:11:11;3.70;;;2.25;;
44078;SDS011;29744;49.078;12.878;2022-12-13T17:16:11;3.90;;;2.25;;
44078;SDS011;29744;49.078;12.878;2022-12-13T17:21:12;4.57;;;2.40;;
44078;SDS011;29744;49.078;12.878;2022-12-13T17:26:13;4.80;;;2.58;;
44078;SDS011;29744;49.078;12.878;2022-12-13T17:31:14;4.65;;;2.70;;
44078;SDS011;29744;49.078;12.878;2022-12-13T17:36:15;3.97;;;2.28;;
44078;SDS011;29744;49.078;12.878;2022-12-13T17:41:16;4.00;;;2.50;;
44078;SDS011;29744;49.078;12.878;2022-12-13T17:46:17;4.20;;;2.75;;
44078;SDS011;29744;49.078;12.878;2022-12-13T17:51:18;3.88;;;2.60;;
44078;SDS011;29744;49.078;12.878;2022-12-13T17:56:18;4.05;;;2.58;;
44078;SDS011;29744;49.078;12.878;2022-12-13T18:01:20;4.00;;;2.53;;
44078;SDS011;29744;49.078;12.878;2022-12-13T18:06:23;4.15;;;2.63;;
44078;SDS011;29744;49.078;12.878;2022-12-13T18:11:24;4.72;;;3.10;;
44078;SDS011;29744;49.078;12.878;2022-12-13T18:16:25;3.78;;;2.40;;
44078;SDS011;29744;49.078;12.878;2022-12-13T18:21:27;5.30;;;3.20;;
44078;SDS011;29744;49.078;12.878;2022-12-13T18:26:27;5.32;;;2.97;;
44078;SDS011;29744;49.078;12.878;2022-12-13T18:31:27;4.90;;;2.95;;
44078;SDS011;29744;49.078;12.878;2022-12-13T18:36:28;4.55;;;2.90;;
44078;SDS011;29744;49.078;12.878;2022-12-13T18:41:29;4.57;;;2.80;;
44078;SDS011;29744;49.078;12.878;2022-12-13T18:46:31;4.43;;;2.90;;
44078;SDS011;29744;49.078;12.878;2022-12-13T18:51:33;4.70;;;2.88;;
44078;SDS011;29744;49.078;12.878;2022-12-13T18:56:34;4.47;;;2.85;;
44078;SDS011;29744;49.078;12.878;2022-12-13T19:01:34;4.38;;;3.20;;
44078;SDS011;29744;49.078;12.878;2022-12-13T19:06:34;4.38;;;3.13;;
44078;SDS011;29744;49.078;12.878;2022-12-13T19:11:35;4.55;;;3.10;;
44078;SDS011;29744;49.078;12.878;2022-12-13T19:16:35;4.63;;;3.20;;
44078;SDS011;29744;49.078;12.878;2022-12-13T19:21:36;4.53;;;3.20;;
44078;SDS011;29744;49.078;12.878;2022-12-13T19:26:36;4.75;;;3.22;;
44078;SDS011;29744;49.078;12.878;2022-12-13T19:31:36;4.43;;;3.20;;
44078;SDS011;29744;49.078;12.878;2022-12-13T19:36:37;4.95;;;3.42;;
44078;SDS011;29744;49.078;12.878;2022-12-13T19:41:37;5.10;;;3.45;;
44078;SDS011;29744;49.078;12.878;2022-12-13T19:46:37;5.03;;;3.67;;
44078;SDS011;29744;49.078;12.878;2022-12-13T19:51:38;4.95;;;3.25;;
44078;SDS011;29744;49.078;12.878;2022-12-13T19:56:38;5.00;;;3.45;;
44078;SDS011;29744;49.078;12.878;2022-12-13T20:01:39;4.65;;;3.40;;
44078;SDS011;29744;49.078;12.878;2022-12-13T20:06:40;5.93;;;4.10;;
44078;SDS011;29744;49.078;12.878;2022-12-13T20:11:40;5.10;;;3.63;;
44078;SDS011;29744;49.078;12.878;2022-12-13T20:16:40;5.22;;;3.20;;
44078;SDS011;29744;49.078;12.878;2022-12-13T20:21:44;6.15;;;3.80;;
44078;SDS011;29744;49.078;12.878;2022-12-13T20:26:45;5.80;;;3.90;;
44078;SDS011;29744;49.078;12.878;2022-12-13T20:31:45;5.63;;;3.80;;
44078;SDS011;29744;49.078;12.878;2022-12-13T20:36:49;5.68;;;3.90;;
44078;SDS011;29744;49.078;12.878;2022-12-13T20:41:49;5.47;;;3.83;;
44078;SDS011;29744;49.078;12.878;2022-12-13T20:46:49;5.38;;;3.80;;
44078;SDS011;29744;49.078;12.878;2022-12-13T20:51:50;5.70;;;4.00;;
44078;SDS011;29744;49.078;12.878;2022-12-13T20:56:50;6.10;;;4.03;;
44078;SDS011;29744;49.078;12.878;2022-12-13T21:01:50;6.63;;;4.30;;
44078;SDS011;29744;49.078;12.878;2022-12-13T21:06:51;5.90;;;4.65;;
44078;SDS011;29744;49.078;12.878;2022-12-13T21:11:51;5.68;;;4.20;;
44078;SDS011;29744;49.078;12.878;2022-12-13T21:16:52;6.95;;;4.15;;
44078;SDS011;29744;49.078;12.878;2022-12-13T21:21:54;5.72;;;4.10;;
44078;SDS011;29744;49.078;12.878;2022-12-13T21:26:55;5.40;;;3.75;;
44078;SDS011;29744;49.078;12.878;2022-12-13T21:31:56;5.88;;;4.35;;
44078;SDS011;29744;49.078;12.878;2022-12-13T21:36:56;6.07;;;3.75;;
44078;SDS011;29744;49.078;12.878;2022-12-13T21:41:56;5.65;;;4.07;;
44078;SDS011;29744;49.078;12.878;2022-12-13T21:46:57;5.93;;;4.07;;
44078;SDS011;29744;49.078;12.878;2022-12-13T21:51:57;5.40;;;3.55;;
44078;SDS011;29744;49.078;12.878;2022-12-13T21:56:57;5.57;;;3.72;;
44078;SDS011;29744;49.078;12.878;2022-12-13T22:02:17;5.40;;;3.95;;
44078;SDS011;29744;49.078;12.878;2022-12-13T22:07:18;6.75;;;3.97;;
44078;SDS011;29744;49.078;12.878;2022-12-13T22:12:24;5.30;;;3.90;;
44078;SDS011;29744;49.078;12.878;2022-12-13T22:17:28;4.65;;;3.38;;
44078;SDS011;29744;49.078;12.878;2022-12-13T22:22:28;4.72;;;3.38;;
44078;SDS011;29744;49.078;12.878;2022-12-13T22:27:29;4.68;;;3.28;;
44078;SDS011;29744;49.078;12.878;2022-12-13T22:32:29;5.63;;;3.70;;
44078;SDS011;29744;49.078;12.878;2022-12-13T22:37:30;4.95;;;3.55;;
44078;SDS011;29744;49.078;12.878;2022-12-13T22:42:32;5.18;;;3.60;;
44078;SDS011;29744;49.078;12.878;2022-12-13T22:47:32;5.32;;;3.30;;
44078;SDS011;29744;49.078;12.878;2022-12-13T22:52:32;4.90;;;2.92;;
44078;SDS011;29744;49.078;12.878;2022-12-13T22:57:32;4.90;;;3.38;;
44078;SDS011;29744;49.078;12.878;2022-12-13T23:02:33;5.35;;;3.28;;
44078;SDS011;29744;49.078;12.878;2022-12-13T23:07:34;5.30;;;3.53;;
44078;SDS011;29744;49.078;12.878;2022-12-13T23:12:34;4.68;;;3.28;;
44078;SDS011;29744;49.078;12.878;2022-12-13T23:17:53;5.25;;;3.55;;
44078;SDS011;29744;49.078;12.878;2022-12-13T23:22:53;5.00;;;3.30;;
44078;SDS011;29744;49.078;12.878;2022-12-13T23:27:54;5.20;;;3.80;;
44078;SDS011;29744;49.078;12.878;2022-12-13T23:32:54;4.68;;;3.08;;
44078;SDS011;29744;49.078;12.878;2022-12-13T23:37:54;4.82;;;3.13;;
44078;SDS011;29744;49.078;12.878;2022-12-13T23:42:55;4.80;;;3.03;;
44078;SDS011;29744;49.078;12.878;2022-12-13T23:47:55;5.40;;;3.20;;
44078;SDS011;29744;49.078;12.878;2022-12-13T23:52:55;4.97;;;3.30;;
44078;SDS011;29744;49.078;12.878;2022-12-13T23:57:56;4.68;;;2.95;;
